sensor_id;sensor_type;location;lat;lon;timestamp;pressure;altitude;pressure_sealevel;temperature;humidity
68594;BME280;55563;52.416;13.548;2022-09-23T00:01:42;101797.19;;;6.71;100.00
68594;BME280;55563;52.416;13.548;2022-09-23T00:03:44;101790.94;;;6.52;100.00
68594;BME280;55563;52.416;13.548;2022-09-23T00:05:56;101793.59;;;6.39;100.00
68594;BME280;55563;52.416;13.548;2022-09-23T00:07:58;101788.56;;;6.44;100.00
68594;BME280;55563;52.416;13.548;2022-09-23T00:09:59;101790.94;;;6.52;100.00
68594;BME280;55563;52.416;13.548;2022-09-23T00:12:00;101783.53;;;6.56;100.00
68594;BME280;55563;52.416;13.548;2022-09-23T00:14:01;101787.34;;;6.53;100.00
68594;BME280;55563;52.416;13.548;2022-09-23T00:16:03;101785.16;;;6.37;100.00
68594;BME280;55563;52.416;13.548;2022-09-23T00:18:05;101777.13;;;6.26;100.00
68594;BME280;55563;52.416;13.548;2022-09-23T00:20:07;101775.09;;;6.14;100.00
68594;BME280;55563;52.416;13.548;2022-09-23T00:22:08;101775.13;;;6.21;100.00
68594;BME280;55563;52.416;13.548;2022-09-23T00:24:09;101776.13;;;6.27;100.00
68594;BME280;55563;52.416;13.548;2022-09-23T00:26:12;101767.69;;;6.38;100.00
68594;BME280;55563;52.416;13.548;2022-09-23T00:28:13;101771.09;;;6.45;100.00
68594;BME280;55563;52.416;13.548;2022-09-23T00:30:13;101776.50;;;6.43;100.00
68594;BME280;55563;52.416;13.548;2022-09-23T00:32:14;101770.09;;;6.39;100.00
68594;BME280;55563;52.416;13.548;2022-09-23T00:34:15;101765.66;;;6.40;100.00
68594;BME280;55563;52.416;13.548;2022-09-23T00:36:16;101763.66;;;6.42;100.00
68594;BME280;55563;52.416;13.548;2022-09-23T00:38:16;101758.22;;;6.43;100.00
68594;BME280;55563;52.416;13.548;2022-09-23T00:40:17;101749.38;;;6.44;100.00
68594;BME280;55563;52.416;13.548;2022-09-23T00:42:19;101749.59;;;6.43;100.00
68594;BME280;55563;52.416;13.548;2022-09-23T00:44:56;101744.19;;;6.31;100.00
68594;BME280;55563;52.416;13.548;2022-09-23T00:46:57;101751.03;;;6.32;100.00
68594;BME280;55563;52.416;13.548;2022-09-23T00:49:02;101745.81;;;6.32;100.00
68594;BME280;55563;52.416;13.548;2022-09-23T00:51:05;101747.19;;;6.35;100.00
68594;BME280;55563;52.416;13.548;2022-09-23T00:53:11;101740.97;;;6.36;100.00
68594;BME280;55563;52.416;13.548;2022-09-23T00:55:17;101742.97;;;6.34;100.00
68594;BME280;55563;52.416;13.548;2022-09-23T00:57:19;101746.00;;;6.24;100.00
68594;BME280;55563;52.416;13.548;2022-09-23T00:59:20;101740.19;;;6.22;100.00
68594;BME280;55563;52.416;13.548;2022-09-23T01:01:24;101740.97;;;6.16;100.00
68594;BME280;55563;52.416;13.548;2022-09-23T01:03:25;101741.38;;;6.20;100.00
68594;BME280;55563;52.416;13.548;2022-09-23T01:05:26;101737.56;;;6.16;100.00
68594;BME280;55563;52.416;13.548;2022-09-23T01:07:27;101729.16;;;6.07;100.00
68594;BME280;55563;52.416;13.548;2022-09-23T01:09:29;101730.34;;;6.04;100.00
68594;BME280;55563;52.416;13.548;2022-09-23T01:11:53;101737.56;;;5.96;100.00
68594;BME280;55563;52.416;13.548;2022-09-23T01:14:17;101729.72;;;5.83;100.00
68594;BME280;55563;52.416;13.548;2022-09-23T01:21:11;101727.91;;;5.77;100.00
68594;BME280;55563;52.416;13.548;2022-09-23T01:31:21;101722.31;;;5.93;100.00
68594;BME280;55563;52.416;13.548;2022-09-23T01:36:13;101717.66;;;5.82;100.00
68594;BME280;55563;52.416;13.548;2022-09-23T01:43:12;101714.44;;;5.60;100.00
68594;BME280;55563;52.416;13.548;2022-09-23T01:45:22;101713.25;;;5.69;100.00
68594;BME280;55563;52.416;13.548;2022-09-23T01:47:31;101716.06;;;5.74;100.00
68594;BME280;55563;52.416;13.548;2022-09-23T01:49:42;101720.47;;;5.74;100.00
68594;BME280;55563;52.416;13.548;2022-09-23T01:51:49;101716.66;;;5.63;100.00
68594;BME280;55563;52.416;13.548;2022-09-23T01:54:14;101710.81;;;5.54;100.00
68594;BME280;55563;52.416;13.548;2022-09-23T01:56:24;101709.00;;;5.48;100.00
68594;BME280;55563;52.416;13.548;2022-09-23T01:58:32;101709.81;;;5.49;100.00
68594;BME280;55563;52.416;13.548;2022-09-23T02:00:38;101715.41;;;5.52;100.00
68594;BME280;55563;52.416;13.548;2022-09-23T02:02:46;101716.22;;;5.53;100.00
68594;BME280;55563;52.416;13.548;2022-09-23T02:04:53;101712.63;;;5.54;100.00
68594;BME280;55563;52.416;13.548;2022-09-23T02:07:01;101713.44;;;5.54;100.00
68594;BME280;55563;52.416;13.548;2022-09-23T02:09:10;101709.84;;;5.55;100.00
68594;BME280;55563;52.416;13.548;2022-09-23T02:11:14;101698.97;;;5.52;100.00
68594;BME280;55563;52.416;13.548;2022-09-23T02:13:19;101707.19;;;5.42;100.00
68594;BME280;55563;52.416;13.548;2022-09-23T02:15:29;101697.94;;;5.33;100.00
68594;BME280;55563;52.416;13.548;2022-09-23T02:17:52;101700.09;;;5.10;100.00
68594;BME280;55563;52.416;13.548;2022-09-23T02:19:57;101700.72;;;5.25;100.00
68594;BME280;55563;52.416;13.548;2022-09-23T02:22:07;101698.16;;;5.38;100.00
68594;BME280;55563;52.416;13.548;2022-09-23T02:24:11;101703.97;;;5.40;100.00
68594;BME280;55563;52.416;13.548;2022-09-23T02:26:17;101691.75;;;5.41;100.00
68594;BME280;55563;52.416;13.548;2022-09-23T02:28:29;101690.34;;;5.45;100.00
68594;BME280;55563;52.416;13.548;2022-09-23T02:30:37;101687.72;;;5.38;100.00
68594;BME280;55563;52.416;13.548;2022-09-23T02:33:04;101690.13;;;5.33;100.00
68594;BME280;55563;52.416;13.548;2022-09-23T02:40:00;101685.91;;;5.25;100.00
68594;BME280;55563;52.416;13.548;2022-09-23T02:42:06;101672.19;;;4.97;100.00
68594;BME280;55563;52.416;13.548;2022-09-23T02:44:11;101674.38;;;4.87;100.00
68594;BME280;55563;52.416;13.548;2022-09-23T02:46:15;101678.78;;;4.87;100.00
68594;BME280;55563;52.416;13.548;2022-09-23T02:48:20;101681.34;;;4.80;100.00
68594;BME280;55563;52.416;13.548;2022-09-23T02:50:22;101668.34;;;4.87;100.00
68594;BME280;55563;52.416;13.548;2022-09-23T02:52:22;101679.22;;;4.97;100.00
68594;BME280;55563;52.416;13.548;2022-09-23T02:54:26;101672.59;;;5.01;100.00
68594;BME280;55563;52.416;13.548;2022-09-23T02:56:27;101664.59;;;5.02;100.00
68594;BME280;55563;52.416;13.548;2022-09-23T02:58:28;101666.38;;;4.95;100.00
68594;BME280;55563;52.416;13.548;2022-09-23T03:00:55;101662.75;;;4.90;100.00
68594;BME280;55563;52.416;13.548;2022-09-23T03:05:29;101663.75;;;4.89;100.00
68594;BME280;55563;52.416;13.548;2022-09-23T03:10:26;101655.06;;;4.75;100.00
68594;BME280;55563;52.416;13.548;2022-09-23T03:12:37;101656.31;;;4.79;100.00
68594;BME280;55563;52.416;13.548;2022-09-23T03:17:00;101650.88;;;4.80;100.00
68594;BME280;55563;52.416;13.548;2022-09-23T03:19:29;101651.09;;;4.79;100.00
68594;BME280;55563;52.416;13.548;2022-09-23T03:21:37;101648.53;;;4.92;100.00
68594;BME280;55563;52.416;13.548;2022-09-23T03:23:41;101645.53;;;4.89;100.00
68594;BME280;55563;52.416;13.548;2022-09-23T03:25:44;101647.53;;;4.93;100.00
68594;BME280;55563;52.416;13.548;2022-09-23T03:27:46;101641.69;;;4.84;100.00
68594;BME280;55563;52.416;13.548;2022-09-23T03:29:48;101632.47;;;4.82;100.00
68594;BME280;55563;52.416;13.548;2022-09-23T03:31:51;101638.31;;;4.91;100.00
68594;BME280;55563;52.416;13.548;2022-09-23T03:33:55;101635.91;;;4.96;100.00
68594;BME280;55563;52.416;13.548;2022-09-23T03:36:03;101634.72;;;4.98;100.00
68594;BME280;55563;52.416;13.548;2022-09-23T03:38:28;101631.91;;;4.93;100.00
68594;BME280;55563;52.416;13.548;2022-09-23T03:40:39;101629.31;;;5.00;100.00
68594;BME280;55563;52.416;13.548;2022-09-23T03:42:42;101628.13;;;5.02;100.00
68594;BME280;55563;52.416;13.548;2022-09-23T03:44:44;101618.09;;;5.06;100.00
68594;BME280;55563;52.416;13.548;2022-09-23T03:46:45;101620.09;;;5.04;100.00
68594;BME280;55563;52.416;13.548;2022-09-23T03:48:49;101619.31;;;5.03;100.00
68594;BME280;55563;52.416;13.548;2022-09-23T03:50:49;101623.94;;;5.08;100.00
68594;BME280;55563;52.416;13.548;2022-09-23T03:52:50;101627.50;;;5.00;100.00
68594;BME280;55563;52.416;13.548;2022-09-23T03:54:51;101621.66;;;4.85;100.00
68594;BME280;55563;52.416;13.548;2022-09-23T03:56:52;101627.06;;;4.83;100.00
68594;BME280;55563;52.416;13.548;2022-09-23T03:58:54;101621.88;;;4.90;100.00
68594;BME280;55563;52.416;13.548;2022-09-23T04:00:55;101630.31;;;4.92;100.00
68594;BME280;55563;52.416;13.548;2022-09-23T04:02:57;101621.28;;;4.95;100.00
68594;BME280;55563;52.416;13.548;2022-09-23T04:04:58;101623.66;;;4.90;100.00
68594;BME280;55563;52.416;13.548;2022-09-23T04:06:59;101633.09;;;4.91;100.00
68594;BME280;55563;52.416;13.548;2022-09-23T04:09:00;101621.09;;;4.96;100.00
68594;BME280;55563;52.416;13.548;2022-09-23T04:11:01;101625.69;;;4.94;100.00
68594;BME280;55563;52.416;13.548;2022-09-23T04:13:02;101625.06;;;4.79;100.00
68594;BME280;55563;52.416;13.548;2022-09-23T04:15:04;101606.63;;;4.74;100.00
68594;BME280;55563;52.416;13.548;2022-09-23T04:17:05;101605.41;;;4.76;100.00
68594;BME280;55563;52.416;13.548;2022-09-23T04:19:05;101599.75;;;4.66;100.00
68594;BME280;55563;52.416;13.548;2022-09-23T04:21:06;101601.78;;;4.71;100.00
68594;BME280;55563;52.416;13.548;2022-09-23T04:23:06;101610.00;;;4.68;100.00
68594;BME280;55563;52.416;13.548;2022-09-23T04:25:07;101609.38;;;4.66;100.00
68594;BME280;55563;52.416;13.548;2022-09-23T04:27:08;101605.78;;;4.67;100.00
68594;BME280;55563;52.416;13.548;2022-09-23T04:29:08;101606.03;;;4.78;100.00
68594;BME280;55563;52.416;13.548;2022-09-23T04:31:10;101602.22;;;4.81;100.00
68594;BME280;55563;52.416;13.548;2022-09-23T04:33:11;101593.81;;;4.79;100.00
68594;BME280;55563;52.416;13.548;2022-09-23T04:35:12;101595.97;;;4.75;100.00
68594;BME280;55563;52.416;13.548;2022-09-23T04:37:13;101596.78;;;4.76;100.00
68594;BME280;55563;52.416;13.548;2022-09-23T04:39:14;101598.41;;;4.77;100.00
68594;BME280;55563;52.416;13.548;2022-09-23T04:41:16;101594.41;;;4.81;100.00
68594;BME280;55563;52.416;13.548;2022-09-23T04:43:18;101596.41;;;4.79;100.00
68594;BME280;55563;52.416;13.548;2022-09-23T04:45:22;101596.59;;;4.77;100.00
68594;BME280;55563;52.416;13.548;2022-09-23T04:47:23;101598.63;;;4.82;100.00
68594;BME280;55563;52.416;13.548;2022-09-23T04:49:24;101602.44;;;4.79;100.00
68594;BME280;55563;52.416;13.548;2022-09-23T04:51:26;101600.59;;;4.73;100.00
68594;BME280;55563;52.416;13.548;2022-09-23T04:53:27;101598.22;;;4.78;100.00
68594;BME280;55563;52.416;13.548;2022-09-23T04:55:28;101599.78;;;4.73;100.00
68594;BME280;55563;52.416;13.548;2022-09-23T04:57:29;101610.22;;;4.73;100.00
68594;BME280;55563;52.416;13.548;2022-09-23T04:59:30;101609.19;;;4.67;100.00
68594;BME280;55563;52.416;13.548;2022-09-23T05:01:32;101601.56;;;4.59;100.00
68594;BME280;55563;52.416;13.548;2022-09-23T05:03:38;101596.94;;;4.55;100.00
68594;BME280;55563;52.416;13.548;2022-09-23T05:05:42;101606.78;;;4.66;100.00
68594;BME280;55563;52.416;13.548;2022-09-23T05:07:43;101595.97;;;4.69;100.00
68594;BME280;55563;52.416;13.548;2022-09-23T05:09:48;101594.19;;;4.69;100.00
68594;BME280;55563;52.416;13.548;2022-09-23T05:11:55;101589.97;;;4.68;100.00
68594;BME280;55563;52.416;13.548;2022-09-23T05:14:00;101586.38;;;4.69;100.00
68594;BME280;55563;52.416;13.548;2022-09-23T05:16:06;101594.38;;;4.68;100.00
68594;BME280;55563;52.416;13.548;2022-09-23T05:18:09;101600.56;;;4.67;100.00
68594;BME280;55563;52.416;13.548;2022-09-23T05:20:11;101599.97;;;4.65;100.00
68594;BME280;55563;52.416;13.548;2022-09-23T05:22:17;101602.16;;;4.61;100.00
68594;BME280;55563;52.416;13.548;2022-09-23T05:24:19;101597.97;;;4.60;100.00
68594;BME280;55563;52.416;13.548;2022-09-23T05:26:22;101593.94;;;4.58;100.00
68594;BME280;55563;52.416;13.548;2022-09-23T05:28:29;101604.16;;;4.59;100.00
68594;BME280;55563;52.416;13.548;2022-09-23T05:30:33;101596.34;;;4.59;100.00
68594;BME280;55563;52.416;13.548;2022-09-23T05:32:39;101603.16;;;4.60;100.00
68594;BME280;55563;52.416;13.548;2022-09-23T05:34:52;101600.56;;;4.60;100.00
68594;BME280;55563;52.416;13.548;2022-09-23T05:37:05;101600.16;;;4.63;100.00
68594;BME280;55563;52.416;13.548;2022-09-23T05:39:09;101590.16;;;4.67;100.00
68594;BME280;55563;52.416;13.548;2022-09-23T05:41:14;101586.38;;;4.69;100.00
68594;BME280;55563;52.416;13.548;2022-09-23T05:43:28;101591.81;;;4.74;100.00
68594;BME280;55563;52.416;13.548;2022-09-23T05:45:30;101590.22;;;4.87;100.00
68594;BME280;55563;52.416;13.548;2022-09-23T05:47:33;101591.22;;;4.92;100.00
68594;BME280;55563;52.416;13.548;2022-09-23T05:49:35;101589.22;;;4.88;100.00
68594;BME280;55563;52.416;13.548;2022-09-23T05:51:36;101588.00;;;4.90;100.00
68594;BME280;55563;52.416;13.548;2022-09-23T05:53:39;101585.25;;;4.98;100.00
68594;BME280;55563;52.416;13.548;2022-09-23T05:55:45;101587.06;;;5.17;100.00
68594;BME280;55563;52.416;13.548;2022-09-23T05:58:11;101586.88;;;5.32;100.00
68594;BME280;55563;52.416;13.548;2022-09-23T06:00:13;101584.06;;;5.40;100.00
68594;BME280;55563;52.416;13.548;2022-09-23T06:02:22;101582.84;;;5.43;100.00
68594;BME280;55563;52.416;13.548;2022-09-23T06:04:40;101591.69;;;5.42;100.00
68594;BME280;55563;52.416;13.548;2022-09-23T06:06:45;101587.06;;;5.50;100.00
68594;BME280;55563;52.416;13.548;2022-09-23T06:08:46;101596.47;;;5.71;100.00
68594;BME280;55563;52.416;13.548;2022-09-23T06:10:48;101590.69;;;5.89;100.00
68594;BME280;55563;52.416;13.548;2022-09-23T06:12:49;101597.47;;;5.96;100.00
68594;BME280;55563;52.416;13.548;2022-09-23T06:14:49;101602.31;;;5.93;100.00
68594;BME280;55563;52.416;13.548;2022-09-23T06:16:50;101600.28;;;6.08;100.00
68594;BME280;55563;52.416;13.548;2022-09-23T06:18:51;101602.88;;;6.08;100.00
68594;BME280;55563;52.416;13.548;2022-09-23T06:20:53;101599.41;;;6.21;100.00
68594;BME280;55563;52.416;13.548;2022-09-23T06:22:54;101599.16;;;6.42;100.00
68594;BME280;55563;52.416;13.548;2022-09-23T06:25:03;101595.13;;;6.46;100.00
68594;BME280;55563;52.416;13.548;2022-09-23T06:27:08;101603.50;;;6.61;100.00
68594;BME280;55563;52.416;13.548;2022-09-23T06:29:10;101602.81;;;6.79;100.00
68594;BME280;55563;52.416;13.548;2022-09-23T06:31:13;101600.75;;;6.87;100.00
68594;BME280;55563;52.416;13.548;2022-09-23T06:33:45;101602.69;;;6.98;100.00
68594;BME280;55563;52.416;13.548;2022-09-23T06:35:47;101595.75;;;7.11;100.00
68594;BME280;55563;52.416;13.548;2022-09-23T06:37:48;101606.22;;;7.42;100.00
68594;BME280;55563;52.416;13.548;2022-09-23T06:39:55;101595.75;;;7.42;100.00
68594;BME280;55563;52.416;13.548;2022-09-23T06:42:25;101589.88;;;7.47;100.00
68594;BME280;55563;52.416;13.548;2022-09-23T06:44:39;101594.41;;;7.58;100.00
68594;BME280;55563;52.416;13.548;2022-09-23T06:46:41;101598.84;;;8.00;100.00
68594;BME280;55563;52.416;13.548;2022-09-23T06:48:45;101585.50;;;8.02;100.00
68594;BME280;55563;52.416;13.548;2022-09-23T06:51:12;101590.97;;;8.00;100.00
68594;BME280;55563;52.416;13.548;2022-09-23T06:53:19;101594.09;;;8.09;100.00
68594;BME280;55563;52.416;13.548;2022-09-23T06:55:24;101597.59;;;8.21;100.00
68594;BME280;55563;52.416;13.548;2022-09-23T06:57:29;101590.84;;;8.31;100.00
68594;BME280;55563;52.416;13.548;2022-09-23T06:59:30;101593.91;;;8.47;100.00
68594;BME280;55563;52.416;13.548;2022-09-23T07:01:33;101592.72;;;8.61;100.00
68594;BME280;55563;52.416;13.548;2022-09-23T07:03:43;101601.53;;;8.78;100.00
68594;BME280;55563;52.416;13.548;2022-09-23T07:05:44;101603.59;;;8.76;100.00
68594;BME280;55563;52.416;13.548;2022-09-23T07:07:52;101601.28;;;8.98;100.00
68594;BME280;55563;52.416;13.548;2022-09-23T07:09:54;101606.50;;;8.86;100.00
68594;BME280;55563;52.416;13.548;2022-09-23T07:12:05;101610.88;;;9.04;100.00
68594;BME280;55563;52.416;13.548;2022-09-23T07:14:35;101609.19;;;9.21;100.00
68594;BME280;55563;52.416;13.548;2022-09-23T07:16:40;101611.25;;;9.19;100.00
68594;BME280;55563;52.416;13.548;2022-09-23T07:19:10;101612.31;;;9.30;100.00
68594;BME280;55563;52.416;13.548;2022-09-23T07:21:17;101608.56;;;9.37;100.00
68594;BME280;55563;52.416;13.548;2022-09-23T07:23:19;101615.63;;;9.60;100.00
68594;BME280;55563;52.416;13.548;2022-09-23T07:25:22;101612.00;;;9.61;100.00
68594;BME280;55563;52.416;13.548;2022-09-23T07:27:28;101611.44;;;9.82;100.00
68594;BME280;55563;52.416;13.548;2022-09-23T07:29:32;101613.72;;;9.90;100.00
68594;BME280;55563;52.416;13.548;2022-09-23T07:31:42;101616.19;;;10.08;100.00
68594;BME280;55563;52.416;13.548;2022-09-23T07:33:46;101617.00;;;10.09;100.00
68594;BME280;55563;52.416;13.548;2022-09-23T07:35:51;101609.81;;;9.93;100.00
68594;BME280;55563;52.416;13.548;2022-09-23T07:37:54;101617.47;;;10.06;100.00
68594;BME280;55563;52.416;13.548;2022-09-23T07:40:00;101613.25;;;10.17;100.00
68594;BME280;55563;52.416;13.548;2022-09-23T07:42:04;101618.94;;;10.14;100.00
68594;BME280;55563;52.416;13.548;2022-09-23T07:44:05;101617.72;;;10.56;98.75
68594;BME280;55563;52.416;13.548;2022-09-23T07:46:15;101615.84;;;10.40;100.00
68594;BME280;55563;52.416;13.548;2022-09-23T07:48:17;101613.31;;;10.45;100.00
68594;BME280;55563;52.416;13.548;2022-09-23T07:50:21;101622.63;;;10.64;100.00
68594;BME280;55563;52.416;13.548;2022-09-23T07:52:29;101620.91;;;10.58;100.00
68594;BME280;55563;52.416;13.548;2022-09-23T07:55:10;101622.94;;;10.68;100.00
68594;BME280;55563;52.416;13.548;2022-09-23T07:57:19;101624.28;;;10.70;100.00
68594;BME280;55563;52.416;13.548;2022-09-23T07:59:20;101622.13;;;10.96;99.27
68594;BME280;55563;52.416;13.548;2022-09-23T08:01:23;101618.53;;;10.85;99.85
68594;BME280;55563;52.416;13.548;2022-09-23T08:03:29;101618.81;;;10.72;100.00
68594;BME280;55563;52.416;13.548;2022-09-23T08:05:36;101613.50;;;10.83;100.00
68594;BME280;55563;52.416;13.548;2022-09-23T08:07:51;101615.97;;;10.90;99.88
68594;BME280;55563;52.416;13.548;2022-09-23T08:10:24;101615.81;;;11.58;97.93
68594;BME280;55563;52.416;13.548;2022-09-23T08:12:29;101609.09;;;11.34;98.43
68594;BME280;55563;52.416;13.548;2022-09-23T08:14:30;101614.06;;;11.30;97.88
68594;BME280;55563;52.416;13.548;2022-09-23T08:16:31;101607.28;;;11.34;97.48
68594;BME280;55563;52.416;13.548;2022-09-23T08:18:51;101604.25;;;11.26;97.60
68594;BME280;55563;52.416;13.548;2022-09-23T08:20:52;101599.94;;;11.36;97.71
68594;BME280;55563;52.416;13.548;2022-09-23T08:22:53;101604.06;;;11.32;97.07
68594;BME280;55563;52.416;13.548;2022-09-23T08:24:54;101606.72;;;11.16;97.29
68594;BME280;55563;52.416;13.548;2022-09-23T08:26:55;101599.22;;;11.41;96.21
68594;BME280;55563;52.416;13.548;2022-09-23T08:28:56;101609.88;;;11.68;95.87
68594;BME280;55563;52.416;13.548;2022-09-23T08:30:57;101602.00;;;11.68;95.90
68594;BME280;55563;52.416;13.548;2022-09-23T08:32:58;101598.31;;;11.86;91.91
68594;BME280;55563;52.416;13.548;2022-09-23T08:34:59;101588.41;;;12.36;89.69
68594;BME280;55563;52.416;13.548;2022-09-23T08:37:00;101593.38;;;12.33;89.68
68594;BME280;55563;52.416;13.548;2022-09-23T08:39:01;101592.66;;;12.37;90.77
68594;BME280;55563;52.416;13.548;2022-09-23T08:43:27;101592.66;;;12.37;90.78
68594;BME280;55563;52.416;13.548;2022-09-23T08:45:29;101586.41;;;12.21;92.47
68594;BME280;55563;52.416;13.548;2022-09-23T08:47:38;101583.66;;;12.60;97.30
68594;BME280;55563;52.416;13.548;2022-09-23T08:50:07;101587.25;;;12.76;91.13
68594;BME280;55563;52.416;13.548;2022-09-23T08:52:17;101578.72;;;12.95;86.84
68594;BME280;55563;52.416;13.548;2022-09-23T08:54:19;101581.06;;;13.19;84.58
68594;BME280;55563;52.416;13.548;2022-09-23T08:56:22;101575.66;;;13.35;82.10
68594;BME280;55563;52.416;13.548;2022-09-23T09:01:32;101578.28;;;13.35;83.86
68594;BME280;55563;52.416;13.548;2022-09-23T09:03:42;101569.97;;;13.17;84.59
68594;BME280;55563;52.416;13.548;2022-09-23T09:05:44;101572.53;;;13.43;85.17
68594;BME280;55563;52.416;13.548;2022-09-23T09:07:45;101572.44;;;13.28;85.69
68594;BME280;55563;52.416;13.548;2022-09-23T09:12:14;101570.06;;;13.69;81.37
68594;BME280;55563;52.416;13.548;2022-09-23T09:14:22;101565.91;;;13.83;80.71
68594;BME280;55563;52.416;13.548;2022-09-23T09:16:46;101562.88;;;14.16;78.80
68594;BME280;55563;52.416;13.548;2022-09-23T09:18:55;101564.94;;;14.04;81.73
68594;BME280;55563;52.416;13.548;2022-09-23T09:23:22;101563.78;;;14.37;81.13
68594;BME280;55563;52.416;13.548;2022-09-23T09:25:53;101564.78;;;14.31;79.45
68594;BME280;55563;52.416;13.548;2022-09-23T09:27:56;101560.97;;;14.07;82.21
68594;BME280;55563;52.416;13.548;2022-09-23T09:29:59;101562.59;;;14.13;81.66
68594;BME280;55563;52.416;13.548;2022-09-23T09:32:11;101562.44;;;14.45;79.99
68594;BME280;55563;52.416;13.548;2022-09-23T09:36:50;101554.25;;;14.46;74.91
68594;BME280;55563;52.416;13.548;2022-09-23T09:38:54;101555.63;;;14.74;74.11
68594;BME280;55563;52.416;13.548;2022-09-23T09:41:00;101553.53;;;14.86;80.27
68594;BME280;55563;52.416;13.548;2022-09-23T09:43:08;101545.84;;;15.15;77.01
68594;BME280;55563;52.416;13.548;2022-09-23T09:47:47;101531.25;;;15.53;70.49
68594;BME280;55563;52.416;13.548;2022-09-23T09:49:55;101528.06;;;15.31;69.99
68594;BME280;55563;52.416;13.548;2022-09-23T09:52:11;101531.25;;;15.43;72.06
68594;BME280;55563;52.416;13.548;2022-09-23T09:54:22;101534.66;;;15.63;69.76
68594;BME280;55563;52.416;13.548;2022-09-23T09:56:29;101531.25;;;15.58;71.93
68594;BME280;55563;52.416;13.548;2022-09-23T09:58:53;101526.09;;;15.92;68.47
68594;BME280;55563;52.416;13.548;2022-09-23T10:00:54;101520.78;;;15.92;72.19
68594;BME280;55563;52.416;13.548;2022-09-23T10:03:00;101516.81;;;15.89;72.17
68594;BME280;55563;52.416;13.548;2022-09-23T10:05:05;101517.59;;;15.95;69.60
68594;BME280;55563;52.416;13.548;2022-09-23T10:07:11;101522.13;;;15.89;68.24
68594;BME280;55563;52.416;13.548;2022-09-23T10:09:15;101503.81;;;15.88;66.85
68594;BME280;55563;52.416;13.548;2022-09-23T10:11:18;101510.63;;;16.09;67.60
68594;BME280;55563;52.416;13.548;2022-09-23T10:13:21;101504.13;;;16.35;69.00
68594;BME280;55563;52.416;13.548;2022-09-23T10:15:28;101514.16;;;16.38;67.67
68594;BME280;55563;52.416;13.548;2022-09-23T10:17:32;101506.59;;;16.17;66.14
68594;BME280;55563;52.416;13.548;2022-09-23T10:19:34;101512.00;;;16.01;68.24
68594;BME280;55563;52.416;13.548;2022-09-23T10:21:37;101507.25;;;15.93;67.30
68594;BME280;55563;52.416;13.548;2022-09-23T10:23:39;101501.72;;;15.85;71.08
68594;BME280;55563;52.416;13.548;2022-09-23T10:25:41;101495.59;;;15.89;71.05
68594;BME280;55563;52.416;13.548;2022-09-23T10:27:42;101497.59;;;16.12;69.81
68594;BME280;55563;52.416;13.548;2022-09-23T10:32:18;101496.16;;;16.35;66.11
68594;BME280;55563;52.416;13.548;2022-09-23T10:34:24;101503.16;;;16.60;66.30
68594;BME280;55563;52.416;13.548;2022-09-23T10:36:27;101499.81;;;16.44;64.79
68594;BME280;55563;52.416;13.548;2022-09-23T10:38:29;101494.94;;;16.56;66.08
68594;BME280;55563;52.416;13.548;2022-09-23T10:40:32;101494.97;;;16.51;65.87
68594;BME280;55563;52.416;13.548;2022-09-23T10:45:33;101492.06;;;16.87;67.28
68594;BME280;55563;52.416;13.548;2022-09-23T10:50:41;101493.38;;;16.89;67.64
68594;BME280;55563;52.416;13.548;2022-09-23T10:53:17;101491.22;;;16.91;60.60
68594;BME280;55563;52.416;13.548;2022-09-23T10:55:28;101490.94;;;16.64;59.26
68594;BME280;55563;52.416;13.548;2022-09-23T11:05:22;101471.06;;;16.90;59.79
68594;BME280;55563;52.416;13.548;2022-09-23T11:07:39;101476.56;;;17.23;64.41
68594;BME280;55563;52.416;13.548;2022-09-23T11:14:46;101461.78;;;16.88;57.64
68594;BME280;55563;52.416;13.548;2022-09-23T11:30:09;101450.78;;;17.23;59.37
68594;BME280;55563;52.416;13.548;2022-09-23T11:36:40;101448.19;;;17.42;56.77
68594;BME280;55563;52.416;13.548;2022-09-23T11:38:45;101430.53;;;17.51;56.96
68594;BME280;55563;52.416;13.548;2022-09-23T11:40:48;101433.56;;;17.44;53.89
68594;BME280;55563;52.416;13.548;2022-09-23T11:43:06;101432.03;;;17.38;55.98
68594;BME280;55563;52.416;13.548;2022-09-23T11:45:19;101429.94;;;17.59;58.05
68594;BME280;55563;52.416;13.548;2022-09-23T11:47:27;101427.66;;;17.48;57.09
68594;BME280;55563;52.416;13.548;2022-09-23T11:52:23;101410.03;;;16.85;52.14
68594;BME280;55563;52.416;13.548;2022-09-23T11:54:31;101410.41;;;17.26;55.93
68594;BME280;55563;52.416;13.548;2022-09-23T11:56:37;101408.03;;;17.43;53.64
68594;BME280;55563;52.416;13.548;2022-09-23T11:58:46;101410.25;;;17.60;54.77
68594;BME280;55563;52.416;13.548;2022-09-23T12:00:58;101405.25;;;16.87;54.47
68594;BME280;55563;52.416;13.548;2022-09-23T12:05:34;101401.84;;;17.29;54.28
68594;BME280;55563;52.416;13.548;2022-09-23T12:07:47;101394.25;;;17.18;55.23
68594;BME280;55563;52.416;13.548;2022-09-23T12:10:04;101400.34;;;17.42;53.77
68594;BME280;55563;52.416;13.548;2022-09-23T12:12:30;101392.09;;;17.67;54.87
68594;BME280;55563;52.416;13.548;2022-09-23T12:15:16;101395.88;;;17.37;48.85
68594;BME280;55563;52.416;13.548;2022-09-23T12:22:42;101383.88;;;16.97;48.08
68594;BME280;55563;52.416;13.548;2022-09-23T12:24:53;101384.19;;;16.67;50.70
68594;BME280;55563;52.416;13.548;2022-09-23T12:26:57;101378.81;;;16.43;48.53
68594;BME280;55563;52.416;13.548;2022-09-23T12:29:01;101381.91;;;16.50;50.15
68594;BME280;55563;52.416;13.548;2022-09-23T12:31:07;101382.06;;;16.93;51.93